createdAt,value
2024-03-02T00:00:32.829Z,92.7
2024-03-02T00:01:32.687Z,92.8
2024-03-02T00:02:32.643Z,92.8
2024-03-02T00:03:32.719Z,92.9
2024-03-02T00:04:32.618Z,92.9
2024-03-02T00:05:32.668Z,93.2
2024-03-02T00:06:32.671Z,92.7
2024-03-02T00:07:32.647Z,93
2024-03-02T00:08:32.693Z,93.1
2024-03-02T00:09:32.683Z,93
2024-03-02T00:10:32.794Z,93.1
2024-03-02T00:11:32.712Z,93.1
2024-03-02T00:12:32.661Z,93.1
2024-03-02T00:13:32.657Z,93.3
2024-03-02T00:14:32.673Z,93.4
2024-03-02T00:15:32.691Z,93.2
2024-03-02T00:16:32.710Z,93.2
2024-03-02T00:17:32.666Z,93.2
2024-03-02T00:18:32.889Z,93.4
2024-03-02T00:19:32.644Z,93.3
2024-03-02T00:20:32.659Z,93.3
2024-03-02T00:21:32.672Z,93.3
2024-03-02T00:22:32.659Z,93.2
2024-03-02T00:23:32.810Z,93.3
2024-03-02T00:24:32.675Z,93.3
2024-03-02T00:25:32.655Z,93.3
2024-03-02T00:26:32.642Z,93.1
2024-03-02T00:27:32.652Z,92.9
2024-03-02T00:28:32.660Z,92.9
2024-03-02T00:29:32.649Z,92.8
2024-03-02T00:30:32.682Z,93
2024-03-02T00:31:32.625Z,92.8
2024-03-02T00:32:32.660Z,92.7
2024-03-02T00:33:32.692Z,92.6
2024-03-02T00:34:32.669Z,92.6
2024-03-02T00:35:32.650Z,92.5
2024-03-02T00:36:32.702Z,92.5
2024-03-02T00:37:32.671Z,92.4
2024-03-02T00:38:32.666Z,92.4
2024-03-02T00:39:32.667Z,92.2
2024-03-02T00:40:32.649Z,92.1
2024-03-02T00:41:32.639Z,92.2
2024-03-02T00:42:32.664Z,92.3
2024-03-02T00:43:32.646Z,92.2
2024-03-02T00:44:32.656Z,92
2024-03-02T00:45:32.681Z,92
2024-03-02T00:46:32.615Z,91.9
2024-03-02T00:47:32.685Z,91.9
2024-03-02T00:48:32.740Z,92
2024-03-02T00:49:32.633Z,91.9
2024-03-02T00:50:32.661Z,91.9
2024-03-02T00:51:32.675Z,91.8
2024-03-02T00:52:32.645Z,91.8
2024-03-02T00:53:32.628Z,91.6
2024-03-02T00:54:32.676Z,91.7
2024-03-02T00:55:32.656Z,91.7
2024-03-02T00:56:32.653Z,91.6
2024-03-02T00:57:32.674Z,91.8
2024-03-02T00:58:32.659Z,91.6
2024-03-02T00:59:32.653Z,91.6
2024-03-02T01:00:32.689Z,91.7
2024-03-02T01:01:32.700Z,91.7
2024-03-02T01:02:32.641Z,91.6
2024-03-02T01:03:32.693Z,91.6
2024-03-02T01:04:32.650Z,91.6
2024-03-02T01:05:32.619Z,91.4
2024-03-02T01:06:32.657Z,91.4
2024-03-02T01:07:32.644Z,91.6
2024-03-02T01:08:32.657Z,91.6
2024-03-02T01:09:32.692Z,91.6
2024-03-02T01:10:32.652Z,91.6
2024-03-02T01:11:32.735Z,91.5
2024-03-02T01:12:32.692Z,91.6
2024-03-02T01:13:32.652Z,91.6
2024-03-02T01:14:32.661Z,91.8
2024-03-02T01:15:32.718Z,91.6
2024-03-02T01:16:32.662Z,91.6
2024-03-02T01:17:32.652Z,91.7
2024-03-02T01:18:32.704Z,91.9
2024-03-02T01:19:32.683Z,91.8
2024-03-02T01:20:32.656Z,91.9
2024-03-02T01:21:32.657Z,91.8
2024-03-02T01:22:32.679Z,91.8
2024-03-02T01:23:32.654Z,91.5
2024-03-02T01:24:32.640Z,91.5
2024-03-02T01:25:32.657Z,91.4
2024-03-02T01:26:32.655Z,91.4
2024-03-02T01:27:32.665Z,91.4
2024-03-02T01:28:32.660Z,91.5
2024-03-02T01:29:32.648Z,91.3
2024-03-02T01:30:32.684Z,91.3
2024-03-02T01:31:32.654Z,91.4
2024-03-02T01:32:32.659Z,91.2
2024-03-02T01:33:32.629Z,91.3
2024-03-02T01:34:32.636Z,91.2
2024-03-02T01:35:32.653Z,91.4
2024-03-02T01:36:32.632Z,91.3
2024-03-02T01:37:32.637Z,91.3
2024-03-02T01:38:32.707Z,91.6
2024-03-02T01:39:32.663Z,91.6
2024-03-02T01:40:32.629Z,91.6
2024-03-02T01:41:32.653Z,91.7
2024-03-02T01:42:32.669Z,91.6
2024-03-02T01:43:32.649Z,91.7
2024-03-02T01:44:32.673Z,91.7
2024-03-02T01:45:32.656Z,91.7
2024-03-02T01:46:32.630Z,91.6
2024-03-02T01:47:32.649Z,91.5
2024-03-02T01:48:32.665Z,91.8
2024-03-02T01:49:32.655Z,91.6
2024-03-02T01:50:32.660Z,91.5
2024-03-02T01:51:32.680Z,91.6
2024-03-02T01:52:32.659Z,91.6
2024-03-02T01:53:32.661Z,91.6
2024-03-02T01:54:32.731Z,91.6
2024-03-02T01:55:32.630Z,91.5
2024-03-02T01:56:32.684Z,91.4
2024-03-02T01:57:32.708Z,91.4
2024-03-02T01:58:32.631Z,91.5
2024-03-02T01:59:32.596Z,91.5
2024-03-02T02:00:32.668Z,91.5
2024-03-02T02:01:32.673Z,91.5
2024-03-02T02:02:32.643Z,91.6
2024-03-02T02:03:32.683Z,91.4
2024-03-02T02:04:32.671Z,91.5
2024-03-02T02:05:32.668Z,91.5
2024-03-02T02:06:32.701Z,91.7
2024-03-02T02:07:32.648Z,91.5
2024-03-02T02:08:32.658Z,91.5
2024-03-02T02:09:32.686Z,91.5
2024-03-02T02:10:32.662Z,91.6
2024-03-02T02:11:32.681Z,91.6
2024-03-02T02:12:32.632Z,91.6
2024-03-02T02:13:32.673Z,91.5
2024-03-02T02:14:32.595Z,91.4
2024-03-02T02:15:32.691Z,91.5
2024-03-02T02:16:32.662Z,91.5
2024-03-02T02:17:32.662Z,91.4
2024-03-02T02:18:32.680Z,91.4
2024-03-02T02:19:32.659Z,91.4
2024-03-02T02:20:32.658Z,91.5
2024-03-02T02:21:32.659Z,91.4
2024-03-02T02:22:32.661Z,91.3
2024-03-02T02:23:32.646Z,91.3
2024-03-02T02:24:32.674Z,91.1
2024-03-02T02:25:32.654Z,91.1
2024-03-02T02:26:32.650Z,91.2
2024-03-02T02:27:32.713Z,91.2
2024-03-02T02:28:32.644Z,91.2
2024-03-02T02:29:32.657Z,91.6
2024-03-02T02:30:32.725Z,91.5
2024-03-02T02:31:32.659Z,91.4
2024-03-02T02:32:32.683Z,91.8
2024-03-02T02:33:32.740Z,92
2024-03-02T02:34:32.621Z,91.9
2024-03-02T02:35:32.647Z,92.5
2024-03-02T02:36:32.674Z,92.4
2024-03-02T02:37:32.665Z,92.2
2024-03-02T02:38:32.642Z,92.1
2024-03-02T02:39:32.711Z,91.9
2024-03-02T02:40:32.634Z,91.8
2024-03-02T02:41:32.657Z,91.8
2024-03-02T02:42:32.659Z,91.8
2024-03-02T02:43:32.664Z,91.9
2024-03-02T02:44:32.655Z,91.9
2024-03-02T02:45:32.666Z,92.1
2024-03-02T02:46:32.655Z,92.1
2024-03-02T02:47:32.696Z,92.3
2024-03-02T02:48:32.672Z,92.1
2024-03-02T02:49:32.654Z,92.3
2024-03-02T02:50:32.667Z,92.2
2024-03-02T02:51:32.582Z,92.4
2024-03-02T02:52:32.601Z,92.5
2024-03-02T02:53:32.642Z,92.6
2024-03-02T02:54:32.638Z,92.7
2024-03-02T02:55:32.665Z,92.6
2024-03-02T02:56:32.659Z,92.5
2024-03-02T02:57:32.688Z,92.9
2024-03-02T02:58:32.627Z,92.7
2024-03-02T02:59:32.660Z,92.9
2024-03-02T03:00:32.725Z,92.9
2024-03-02T03:01:32.720Z,92.9
2024-03-02T03:02:32.656Z,93
2024-03-02T03:03:32.669Z,92.9
2024-03-02T03:04:32.626Z,93
2024-03-02T03:05:32.668Z,93
2024-03-02T03:06:32.682Z,92.9
2024-03-02T03:07:32.656Z,92.8
2024-03-02T03:08:32.672Z,93.1
2024-03-02T03:09:32.717Z,92.8
2024-03-02T03:10:32.655Z,92.7
2024-03-02T03:11:32.697Z,92.9
2024-03-02T03:12:32.679Z,92.8
2024-03-02T03:13:32.667Z,92.9
2024-03-02T03:14:32.634Z,92.9
2024-03-02T03:15:32.649Z,92.9
2024-03-02T03:16:32.654Z,92.9
2024-03-02T03:17:32.817Z,92.8
2024-03-02T03:18:32.693Z,92.7
2024-03-02T03:19:32.636Z,92.8
2024-03-02T03:20:32.654Z,92.9
2024-03-02T03:21:32.728Z,92.9
2024-03-02T03:22:32.653Z,92.9
2024-03-02T03:23:32.635Z,92.9
2024-03-02T03:24:32.658Z,92.9
2024-03-02T03:25:32.656Z,92.8
2024-03-02T03:26:32.653Z,92.9
2024-03-02T03:27:32.643Z,92.8
2024-03-02T03:28:32.640Z,92.5
2024-03-02T03:29:32.660Z,92.4
2024-03-02T03:30:32.709Z,92.4
2024-03-02T03:31:32.664Z,92.1
2024-03-02T03:32:32.640Z,92.4
2024-03-02T03:33:32.678Z,92
2024-03-02T03:34:32.674Z,92.3
2024-03-02T03:35:32.641Z,92.2
2024-03-02T03:36:32.665Z,92.5
2024-03-02T03:37:32.658Z,92.4
2024-03-02T03:38:32.643Z,92.5
2024-03-02T03:39:32.667Z,92.5
2024-03-02T03:40:32.611Z,92.4
2024-03-02T03:41:32.658Z,92.4
2024-03-02T03:42:32.729Z,92.3
2024-03-02T03:43:32.648Z,92.3
2024-03-02T03:44:32.620Z,92.3
2024-03-02T03:45:32.769Z,92
2024-03-02T03:46:32.659Z,92.1
2024-03-02T03:47:32.633Z,91.9
2024-03-02T03:48:32.697Z,91.9
2024-03-02T03:49:32.638Z,91.9
2024-03-02T03:50:32.638Z,91.8
2024-03-02T03:51:32.659Z,91.8
2024-03-02T03:52:32.616Z,91.6
2024-03-02T03:53:32.666Z,91.6
2024-03-02T03:54:32.702Z,91.7
2024-03-02T03:55:32.636Z,91.5
2024-03-02T03:56:32.632Z,91.5
2024-03-02T03:57:32.657Z,91.4
2024-03-02T03:58:32.652Z,91.3
2024-03-02T03:59:32.672Z,91.3
2024-03-02T04:00:32.674Z,91.1
2024-03-02T04:01:32.690Z,91.1
2024-03-02T04:02:32.662Z,91.1
2024-03-02T04:03:32.708Z,91.1
2024-03-02T04:04:32.729Z,91.1
2024-03-02T04:05:32.664Z,91.2
2024-03-02T04:06:32.701Z,91.2
2024-03-02T04:07:32.657Z,91.1
2024-03-02T04:08:32.658Z,91
2024-03-02T04:09:32.707Z,91
2024-03-02T04:10:32.659Z,90.9
2024-03-02T04:11:32.667Z,90.9
2024-03-02T04:12:32.714Z,90.9
2024-03-02T04:13:32.640Z,90.9
2024-03-02T04:14:32.647Z,90.8
2024-03-02T04:15:32.655Z,90.9
2024-03-02T04:16:32.624Z,90.9
2024-03-02T04:17:32.660Z,90.9
2024-03-02T04:18:32.704Z,90.8
2024-03-02T04:19:32.673Z,90.9
2024-03-02T04:20:32.656Z,90.9
2024-03-02T04:21:32.698Z,90.7
2024-03-02T04:22:32.679Z,90.8
2024-03-02T04:23:32.624Z,90.7
2024-03-02T04:24:32.686Z,90.7
2024-03-02T04:25:32.661Z,90.7
2024-03-02T04:26:32.620Z,90.8
2024-03-02T04:27:32.664Z,90.9
2024-03-02T04:28:32.664Z,91
2024-03-02T04:29:32.659Z,91
2024-03-02T04:30:32.653Z,91.1
2024-03-02T04:31:32.697Z,91.3
2024-03-02T04:32:32.742Z,91.2
2024-03-02T04:33:32.703Z,91.3
2024-03-02T04:34:32.632Z,91.5
2024-03-02T04:35:32.655Z,91.4
2024-03-02T04:36:32.773Z,91.3
2024-03-02T04:37:32.674Z,91.2
2024-03-02T04:38:32.638Z,91.2
2024-03-02T04:39:32.656Z,91.2
2024-03-02T04:40:32.638Z,91.2
2024-03-02T04:41:32.654Z,91.2
2024-03-02T04:42:32.708Z,91.3
2024-03-02T04:43:32.668Z,91.3
2024-03-02T04:44:32.633Z,91.5
2024-03-02T04:45:32.726Z,91.7
2024-03-02T04:46:32.666Z,91.6
2024-03-02T04:47:32.646Z,91.7
2024-03-02T04:48:32.682Z,91.7
2024-03-02T04:49:32.773Z,91.9
2024-03-02T04:50:32.652Z,91.7
2024-03-02T04:51:32.716Z,91.9
2024-03-02T04:52:32.671Z,92.1
2024-03-02T04:53:32.647Z,92.2
2024-03-02T04:54:32.697Z,92.1
2024-03-02T04:55:32.602Z,92.2
2024-03-02T04:56:32.644Z,92.1
2024-03-02T04:57:32.676Z,92.3
2024-03-02T04:58:32.663Z,92.2
2024-03-02T04:59:32.642Z,92.1
2024-03-02T05:00:32.672Z,91.8
2024-03-02T05:01:32.630Z,91.7
2024-03-02T05:02:32.635Z,91.6
2024-03-02T05:03:32.686Z,91.5
2024-03-02T05:04:32.665Z,91.6
2024-03-02T05:05:32.678Z,91.6
2024-03-02T05:06:32.652Z,91.7
2024-03-02T05:07:32.625Z,91.8
2024-03-02T05:08:32.638Z,91.7
2024-03-02T05:09:32.641Z,91.8
2024-03-02T05:10:32.647Z,91.9
2024-03-02T05:11:32.682Z,91.6
2024-03-02T05:12:32.676Z,91.6
2024-03-02T05:13:32.653Z,91.7
2024-03-02T05:14:32.631Z,91.9
2024-03-02T05:15:32.624Z,91.9
2024-03-02T05:16:32.602Z,91.9
2024-03-02T05:17:32.709Z,91.8
2024-03-02T05:18:32.658Z,91.8
2024-03-02T05:19:32.629Z,91.6
2024-03-02T05:20:32.633Z,91.7
2024-03-02T05:21:32.690Z,91.8
2024-03-02T05:22:32.653Z,91.7
2024-03-02T05:23:32.646Z,91.6
2024-03-02T05:24:32.641Z,91.8
2024-03-02T05:25:32.646Z,91.8
2024-03-02T05:26:32.633Z,91.7
2024-03-02T05:27:32.678Z,91.7
2024-03-02T05:28:32.665Z,91.6
2024-03-02T05:29:32.632Z,91.4
2024-03-02T05:30:32.664Z,91.2
2024-03-02T05:31:32.634Z,91.2
2024-03-02T05:32:32.626Z,91.1
2024-03-02T05:33:32.735Z,91.4
2024-03-02T05:34:32.622Z,91.8
2024-03-02T05:35:32.631Z,91.9
2024-03-02T05:36:32.646Z,92
2024-03-02T05:37:32.640Z,92
2024-03-02T05:38:32.657Z,92
2024-03-02T05:39:32.720Z,92
2024-03-02T05:40:32.657Z,92
2024-03-02T05:41:32.653Z,92
2024-03-02T05:42:32.667Z,92.1
2024-03-02T05:43:32.676Z,92
2024-03-02T05:44:32.642Z,92.1
2024-03-02T05:45:32.675Z,92.1
2024-03-02T05:46:32.656Z,92.3
2024-03-02T05:47:32.677Z,92.4
2024-03-02T05:48:32.679Z,92.6
2024-03-02T05:49:32.663Z,92.6
2024-03-02T05:50:32.652Z,92.5
2024-03-02T05:51:32.656Z,92.4
2024-03-02T05:52:32.616Z,92.3
2024-03-02T05:53:32.665Z,91.9
2024-03-02T05:54:32.623Z,91.9
2024-03-02T05:55:32.651Z,92.1
2024-03-02T05:56:32.654Z,92.5
2024-03-02T05:57:32.699Z,92.5
2024-03-02T05:58:32.670Z,92.6
2024-03-02T05:59:32.666Z,92.6
2024-03-02T06:00:32.777Z,92.7
2024-03-02T06:01:32.709Z,92.8
2024-03-02T06:02:32.663Z,92.8
2024-03-02T06:03:32.716Z,92.8
2024-03-02T06:04:32.656Z,92.8
2024-03-02T06:05:32.624Z,92.5
2024-03-02T06:06:32.701Z,92.7
2024-03-02T06:07:32.659Z,92.8
2024-03-02T06:08:32.657Z,92.8
2024-03-02T06:09:32.665Z,93
2024-03-02T06:10:32.654Z,93.3
2024-03-02T06:11:32.688Z,93
2024-03-02T06:12:32.696Z,92.8
2024-03-02T06:13:32.665Z,93.1
2024-03-02T06:14:32.623Z,93.1
2024-03-02T06:15:32.652Z,93.2
2024-03-02T06:16:32.642Z,93.3
2024-03-02T06:17:32.703Z,93.4
2024-03-02T06:18:32.686Z,93.7
2024-03-02T06:19:32.578Z,93.9
2024-03-02T06:20:36.461Z,94
2024-03-02T06:21:32.677Z,94.4
2024-03-02T06:22:32.660Z,94.5
2024-03-02T06:23:32.616Z,94.7
2024-03-02T06:24:32.718Z,94.8
2024-03-02T06:25:32.668Z,95
2024-03-02T06:26:32.639Z,94.9
2024-03-02T06:27:32.642Z,95.2
2024-03-02T06:28:32.657Z,95.2
2024-03-02T06:29:32.671Z,95.1
2024-03-02T06:30:32.681Z,95.2
2024-03-02T06:31:32.648Z,95.2
2024-03-02T06:32:32.622Z,94.9
2024-03-02T06:33:32.668Z,95
2024-03-02T06:34:32.626Z,94.9
2024-03-02T06:35:32.650Z,94.6
2024-03-02T06:36:32.670Z,94.6
2024-03-02T06:37:32.663Z,94.7
2024-03-02T06:38:32.618Z,94.9
2024-03-02T06:39:32.675Z,95
2024-03-02T06:40:32.672Z,95.1
2024-03-02T06:41:32.653Z,95.3
2024-03-02T06:42:32.683Z,95.5
2024-03-02T06:43:32.653Z,95.4
2024-03-02T06:44:32.643Z,95.4
2024-03-02T06:45:32.636Z,95.4
2024-03-02T06:46:32.624Z,95.4
2024-03-02T06:48:32.748Z,95.3
2024-03-02T06:49:32.641Z,95.3
2024-03-02T06:50:32.641Z,95.3
2024-03-02T06:51:32.673Z,95.3
2024-03-02T06:52:32.661Z,95.3
2024-03-02T06:53:32.687Z,95.2
2024-03-02T06:54:32.617Z,95.3
2024-03-02T06:55:32.661Z,95.3
2024-03-02T06:56:32.663Z,95.2
2024-03-02T06:57:32.710Z,95.1
2024-03-02T06:58:32.637Z,95.1
2024-03-02T06:59:32.660Z,95.2
2024-03-02T07:00:32.674Z,94.9
2024-03-02T07:01:32.681Z,94.9
2024-03-02T07:02:32.642Z,95.1
2024-03-02T07:03:32.723Z,94.9
2024-03-02T07:04:32.659Z,95.1
2024-03-02T07:05:32.658Z,95.2
2024-03-02T07:06:32.650Z,95.1
2024-03-02T07:07:32.659Z,95.3
2024-03-02T07:08:32.646Z,95.3
2024-03-02T07:09:32.685Z,95.1
2024-03-02T07:10:32.640Z,95
2024-03-02T07:11:32.636Z,95.1
2024-03-02T07:12:32.664Z,95.1
2024-03-02T07:13:32.688Z,94.9
2024-03-02T07:14:32.634Z,94.9
2024-03-02T07:15:32.672Z,95
2024-03-02T07:16:32.638Z,95.2
2024-03-02T07:17:32.678Z,95.4
2024-03-02T07:18:32.805Z,95.3
2024-03-02T07:19:32.686Z,95.1
2024-03-02T07:20:32.666Z,95.2
2024-03-02T07:21:32.695Z,95.1
2024-03-02T07:22:32.666Z,94.9
2024-03-02T07:23:32.654Z,95.1
2024-03-02T07:24:32.656Z,95.1
2024-03-02T07:27:32.659Z,95.2
2024-03-02T07:28:32.614Z,95.2
2024-03-02T07:29:32.662Z,95
2024-03-02T07:30:34.241Z,95.1
2024-03-02T07:31:32.657Z,95.1
2024-03-02T07:32:32.688Z,94.9
2024-03-02T07:33:32.715Z,94.7
2024-03-02T07:34:32.683Z,94.4
2024-03-02T07:35:32.663Z,94
2024-03-02T07:36:32.626Z,94.2
2024-03-02T07:37:32.628Z,94.1
2024-03-02T07:38:32.658Z,94.1
2024-03-02T07:39:32.699Z,94
2024-03-02T07:40:32.661Z,93.9
2024-03-02T07:41:32.643Z,93.8
2024-03-02T07:42:32.684Z,93.6
2024-03-02T07:43:32.678Z,93.4
2024-03-02T07:44:32.656Z,93.4
2024-03-02T07:45:32.682Z,93
2024-03-02T07:46:32.645Z,92.8
2024-03-02T07:47:32.655Z,92.6
2024-03-02T07:48:32.676Z,92.8
2024-03-02T07:49:32.661Z,92.8
2024-03-02T07:50:32.637Z,92.5
2024-03-02T07:51:32.682Z,92.5
2024-03-02T07:52:32.652Z,92.1
2024-03-02T07:53:32.660Z,91.9
2024-03-02T07:54:32.696Z,91.9
2024-03-02T07:55:32.654Z,91.7
2024-03-02T07:56:32.656Z,91.7
2024-03-02T07:57:32.700Z,91.6
2024-03-02T07:58:32.671Z,91.6
2024-03-02T07:59:32.657Z,92.1
2024-03-02T08:00:32.669Z,92.6
2024-03-02T08:01:32.696Z,93
2024-03-02T08:02:32.654Z,93.2
2024-03-02T08:03:32.669Z,93.4
2024-03-02T08:04:32.654Z,93.7
2024-03-02T08:05:32.676Z,93.5
2024-03-02T08:06:32.662Z,93.7
2024-03-02T08:07:32.675Z,93.7
2024-03-02T08:08:32.682Z,93.7
2024-03-02T08:09:32.703Z,93.7
2024-03-02T08:10:32.618Z,93.5
2024-03-02T08:11:32.671Z,93.4
2024-03-02T08:12:32.664Z,93.5
2024-03-02T08:13:32.650Z,93.4
2024-03-02T08:14:32.656Z,93.4
2024-03-02T08:15:32.732Z,93.4
2024-03-02T08:16:32.663Z,93.6
2024-03-02T08:17:34.294Z,93.6
2024-03-02T08:18:32.648Z,93.6
2024-03-02T08:19:32.656Z,93.4
2024-03-02T08:20:32.666Z,93.6
2024-03-02T08:21:32.742Z,93.4
2024-03-02T08:22:32.627Z,93.3
2024-03-02T08:23:32.634Z,93.2
2024-03-02T08:24:32.665Z,93.3
2024-03-02T08:25:32.688Z,92.9
2024-03-02T08:26:32.656Z,92.8
2024-03-02T08:27:32.701Z,92.8
2024-03-02T08:28:32.609Z,92.8
2024-03-02T08:29:32.648Z,92.8
2024-03-02T08:30:32.619Z,92.6
2024-03-02T08:31:32.678Z,92.5
2024-03-02T08:32:32.651Z,92.2
2024-03-02T08:33:33.964Z,92.2
2024-03-02T08:34:32.634Z,92
2024-03-02T08:35:32.617Z,92
2024-03-02T08:36:32.698Z,92
2024-03-02T08:37:32.654Z,92
2024-03-02T08:38:32.647Z,92.1
2024-03-02T08:39:32.738Z,91.9
2024-03-02T08:40:32.639Z,91.8
2024-03-02T08:41:32.647Z,91.8
2024-03-02T08:42:32.687Z,91.9
2024-03-02T08:43:32.641Z,91.7
2024-03-02T08:44:32.654Z,91.4
2024-03-02T08:45:32.845Z,91.1
2024-03-02T08:46:32.662Z,90.9
2024-03-02T08:47:32.598Z,91.3
2024-03-02T08:48:32.666Z,91.7
2024-03-02T08:49:32.665Z,91.7
2024-03-02T08:50:32.601Z,91.5
2024-03-02T08:51:32.679Z,91.6
2024-03-02T08:52:32.621Z,91.7
2024-03-02T08:53:32.629Z,91.8
2024-03-02T08:54:32.637Z,91.3
2024-03-02T08:55:32.659Z,90.7
2024-03-02T08:56:32.677Z,90.8
2024-03-02T08:57:32.737Z,91
2024-03-02T08:58:32.668Z,90.6
2024-03-02T08:59:32.640Z,89.8
2024-03-02T09:00:32.771Z,89.4
2024-03-02T09:01:32.762Z,90
2024-03-02T09:02:32.666Z,89.8
2024-03-02T09:03:32.662Z,90.5
2024-03-02T09:05:32.670Z,89.8
2024-03-02T09:06:32.674Z,89.6
2024-03-02T09:07:32.639Z,89.6
2024-03-02T09:08:32.638Z,89.1
2024-03-02T09:09:32.652Z,89.1
2024-03-02T09:10:32.668Z,88.7
2024-03-02T09:11:32.683Z,87.7
2024-03-02T09:12:32.697Z,87.6
2024-03-02T09:13:32.636Z,87.5
2024-03-02T09:14:32.649Z,86.9
2024-03-02T09:15:35.860Z,87.3
2024-03-02T09:16:32.664Z,85.8
2024-03-02T09:17:32.638Z,86
2024-03-02T09:18:32.711Z,84.6
2024-03-02T09:19:32.666Z,84.1
2024-03-02T09:20:32.639Z,84.3
2024-03-02T09:21:32.696Z,84.5
2024-03-02T09:22:32.661Z,83.9
2024-03-02T09:23:32.657Z,83.7
2024-03-02T09:24:32.643Z,83.4
2024-03-02T09:25:32.646Z,82
2024-03-02T09:26:32.646Z,82.9
2024-03-02T09:27:32.682Z,82.1
2024-03-02T09:28:32.655Z,81.9
2024-03-02T09:29:32.656Z,80.9
2024-03-02T09:30:32.659Z,79.8
2024-03-02T09:31:32.640Z,79.6
2024-03-02T09:32:32.704Z,80.2
2024-03-02T09:33:32.802Z,79.7
2024-03-02T09:34:32.658Z,79.4
2024-03-02T09:35:32.658Z,77.5
2024-03-02T09:36:32.664Z,77.4
2024-03-02T09:37:32.643Z,76.8
2024-03-02T09:38:32.637Z,78.7
2024-03-02T09:39:32.681Z,79.2
2024-03-02T09:40:32.657Z,79.6
2024-03-02T09:41:32.659Z,79
2024-03-02T09:42:32.632Z,79.8
2024-03-02T09:43:32.645Z,80.2
2024-03-02T09:44:32.634Z,81.3
2024-03-02T09:45:32.675Z,81.2
2024-03-02T09:46:32.640Z,80.2
2024-03-02T09:47:32.653Z,79.7
2024-03-02T09:48:32.682Z,80.8
2024-03-02T09:49:32.652Z,80.1
2024-03-02T09:50:32.657Z,80.8
2024-03-02T09:51:32.693Z,80.5
2024-03-02T09:52:32.636Z,80.7
2024-03-02T09:53:32.642Z,81.5
2024-03-02T09:54:32.705Z,80.2
2024-03-02T09:55:32.614Z,81
2024-03-02T09:56:32.661Z,79.9
2024-03-02T09:57:32.683Z,80.4
2024-03-02T09:58:32.661Z,80.8
2024-03-02T09:59:32.641Z,81.8
2024-03-02T10:00:32.633Z,82.2
2024-03-02T10:01:32.672Z,82.1
2024-03-02T10:02:32.665Z,82.6
2024-03-02T10:03:32.655Z,82.8
2024-03-02T10:04:32.681Z,83.2
2024-03-02T10:05:32.655Z,83.7
2024-03-02T10:06:32.736Z,83.4
2024-03-02T10:07:32.635Z,83.8
2024-03-02T10:08:32.673Z,83.3
2024-03-02T10:09:32.675Z,83.9
2024-03-02T10:10:32.672Z,84.4
2024-03-02T10:11:32.611Z,83.1
2024-03-02T10:12:32.667Z,83.8
2024-03-02T10:13:32.658Z,83.6
2024-03-02T10:14:32.638Z,83.5
2024-03-02T10:15:32.653Z,81.8
2024-03-02T10:16:32.652Z,82.6
2024-03-02T10:17:32.822Z,80.9
2024-03-02T10:18:32.650Z,82.1
2024-03-02T10:19:32.634Z,82.8
2024-03-02T10:20:32.635Z,80.9
2024-03-02T10:21:32.640Z,80.8
2024-03-02T10:22:32.672Z,79.9
2024-03-02T10:23:32.645Z,80.1
2024-03-02T10:24:32.649Z,78.8
2024-03-02T10:25:40.583Z,79.8
2024-03-02T10:26:32.636Z,79.7
2024-03-02T10:27:32.625Z,79.7
2024-03-02T10:28:32.653Z,79.5
2024-03-02T10:29:32.614Z,80.6
2024-03-02T10:30:32.672Z,79
2024-03-02T10:31:32.637Z,79.9
2024-03-02T10:32:32.663Z,77.6
2024-03-02T10:33:32.656Z,77.2
2024-03-02T10:34:32.665Z,74.4
2024-03-02T10:35:32.603Z,74.7
2024-03-02T10:36:32.695Z,77.4
2024-03-02T10:37:32.661Z,77.7
2024-03-02T10:38:32.654Z,77.9
2024-03-02T10:39:32.720Z,75.5
2024-03-02T10:40:32.661Z,76.9
2024-03-02T10:41:32.660Z,74.7
2024-03-02T10:42:32.677Z,75.1
2024-03-02T10:43:32.639Z,75.6
2024-03-02T10:44:32.638Z,76.1
2024-03-02T10:45:32.686Z,75.5
2024-03-02T10:46:32.637Z,76.5
2024-03-02T10:47:32.684Z,77.9
2024-03-02T10:48:32.650Z,76.2
2024-03-02T10:49:32.655Z,76.2
2024-03-02T10:50:32.653Z,77.4
2024-03-02T10:51:32.652Z,77.6
2024-03-02T10:52:32.668Z,77.5
2024-03-02T10:53:32.644Z,77.8
2024-03-02T10:54:32.683Z,78
2024-03-02T10:55:33.015Z,78.7
2024-03-02T10:56:32.649Z,77.3
2024-03-02T10:57:32.707Z,76.5
2024-03-02T10:58:32.801Z,76
2024-03-02T10:59:32.638Z,76.5
2024-03-02T11:00:32.641Z,77.3
2024-03-02T11:01:32.722Z,76.1
2024-03-02T11:02:32.651Z,75.1
2024-03-02T11:03:32.671Z,74.3
2024-03-02T11:04:32.661Z,73.2
2024-03-02T11:05:32.652Z,71.7
2024-03-02T11:06:32.624Z,71.9
2024-03-02T11:07:32.655Z,72.5
2024-03-02T11:08:32.659Z,73.5
2024-03-02T11:09:32.668Z,72.2
2024-03-02T11:10:32.673Z,73.6
2024-03-02T11:11:32.699Z,76.5
2024-03-02T11:12:32.689Z,77.6
2024-03-02T11:13:32.651Z,78.6
2024-03-02T11:14:32.641Z,78
2024-03-02T11:15:32.629Z,78.4
2024-03-02T11:16:32.608Z,78.8
2024-03-02T11:17:32.680Z,79.1
2024-03-02T11:18:32.709Z,78.3
2024-03-02T11:19:32.755Z,78
2024-03-02T11:20:32.650Z,78
2024-03-02T11:21:32.719Z,76
2024-03-02T11:22:32.659Z,77.8
2024-03-02T11:23:32.670Z,77.4
2024-03-02T11:24:36.513Z,77.6
2024-03-02T11:25:32.630Z,75.6
2024-03-02T11:26:32.642Z,76.5
2024-03-02T11:27:32.697Z,76.3
2024-03-02T11:28:32.585Z,76.3
2024-03-02T11:29:32.668Z,76
2024-03-02T11:30:32.681Z,76
2024-03-02T11:31:32.638Z,76.6
2024-03-02T11:32:32.651Z,75.6
2024-03-02T11:33:32.769Z,75.3
2024-03-02T11:34:32.643Z,74.9
2024-03-02T11:35:32.633Z,75.2
2024-03-02T11:36:32.685Z,75.1
2024-03-02T11:37:32.713Z,75.8
2024-03-02T11:38:32.710Z,75.8
2024-03-02T11:39:32.673Z,75.2
2024-03-02T11:40:32.666Z,75
2024-03-02T11:41:32.622Z,75.6
2024-03-02T11:42:32.658Z,74.8
2024-03-02T11:43:32.639Z,74.1
2024-03-02T11:44:32.643Z,74.2
2024-03-02T11:45:32.627Z,73.7
2024-03-02T11:46:32.650Z,73.7
2024-03-02T11:47:34.617Z,73.3
2024-03-02T11:48:32.690Z,73.5
2024-03-02T11:49:32.610Z,73.2
2024-03-02T11:50:32.623Z,73
2024-03-02T11:51:32.706Z,73
2024-03-02T11:52:32.641Z,72.1
2024-03-02T11:53:35.562Z,72.1
2024-03-02T11:54:32.645Z,72
2024-03-02T11:55:32.625Z,72.3
2024-03-02T11:56:32.626Z,71.5
2024-03-02T11:57:32.653Z,71.7
2024-03-02T11:58:32.655Z,72.6
2024-03-02T11:59:32.633Z,72.7
2024-03-02T12:00:32.716Z,72.3
2024-03-02T12:01:32.788Z,72.7
2024-03-02T12:02:32.655Z,73
2024-03-02T12:03:32.747Z,73
2024-03-02T12:04:32.672Z,72.3
2024-03-02T12:05:32.653Z,72.6
2024-03-02T12:06:32.698Z,72.7
2024-03-02T12:07:32.657Z,72.1
2024-03-02T12:08:32.659Z,72.8
2024-03-02T12:09:32.666Z,72.9
2024-03-02T12:10:32.690Z,72.8
2024-03-02T12:11:32.683Z,74.2
2024-03-02T12:12:32.681Z,74
2024-03-02T12:13:33.023Z,74.6
2024-03-02T12:14:32.638Z,75
2024-03-02T12:15:32.687Z,74.6
2024-03-02T12:16:32.656Z,73.8
2024-03-02T12:17:32.680Z,73.8
2024-03-02T12:18:32.684Z,74.4
2024-03-02T12:19:32.603Z,74.7
2024-03-02T12:20:32.640Z,74.8
2024-03-02T12:21:32.696Z,74.5
2024-03-02T12:22:32.645Z,74.1
2024-03-02T12:23:32.659Z,73.4
2024-03-02T12:24:32.661Z,72.5
2024-03-02T12:25:32.794Z,72.3
2024-03-02T12:26:32.640Z,71.7
2024-03-02T12:27:32.686Z,73
2024-03-02T12:28:33.786Z,73.1
2024-03-02T12:29:32.601Z,73.4
2024-03-02T12:30:32.697Z,73.1
2024-03-02T12:31:32.625Z,73
2024-03-02T12:32:32.650Z,69.5
2024-03-02T12:33:32.769Z,69
2024-03-02T12:34:32.724Z,68.8
2024-03-02T12:35:32.685Z,68.2
2024-03-02T12:36:32.715Z,67.8
2024-03-02T12:37:32.649Z,67.6
2024-03-02T12:38:32.630Z,66.8
2024-03-02T12:39:32.668Z,67.5
2024-03-02T12:40:32.646Z,66.5
2024-03-02T12:41:33.109Z,67.7
2024-03-02T12:42:32.688Z,66.9
2024-03-02T12:43:32.638Z,65.7
2024-03-02T12:44:32.649Z,66
2024-03-02T12:45:32.639Z,66.2
2024-03-02T12:46:32.643Z,65.5
2024-03-02T12:47:32.718Z,64.5
2024-03-02T12:48:32.676Z,64.5
2024-03-02T12:49:32.656Z,64.5
2024-03-02T12:50:32.654Z,65
2024-03-02T12:51:32.668Z,65.1
2024-03-02T12:52:32.649Z,64.9
2024-03-02T12:53:32.648Z,65.5
2024-03-02T12:54:32.680Z,65.5
2024-03-02T12:55:32.672Z,65.1
2024-03-02T12:56:32.600Z,64.5
2024-03-02T12:57:32.672Z,64.2
2024-03-02T12:58:32.665Z,64
2024-03-02T12:59:32.713Z,64.5
2024-03-02T13:00:32.641Z,64.8
2024-03-02T13:01:32.712Z,65.4
2024-03-02T13:02:32.633Z,65.7
2024-03-02T13:03:32.634Z,66.2
2024-03-02T13:04:32.630Z,67.7
2024-03-02T13:05:32.644Z,70.5
2024-03-02T13:06:32.648Z,71.8
2024-03-02T13:07:32.662Z,72.5
2024-03-02T13:08:32.624Z,72.6
2024-03-02T13:09:32.703Z,72.7
2024-03-02T13:10:32.622Z,73
2024-03-02T13:11:32.617Z,73.1
2024-03-02T13:12:32.658Z,72.7
2024-03-02T13:13:32.667Z,73.2
2024-03-02T13:14:32.638Z,73.4
2024-03-02T13:15:32.687Z,73.5
2024-03-02T13:16:36.676Z,73.5
2024-03-02T13:17:37.096Z,73.4
2024-03-02T13:18:32.783Z,73.1
2024-03-02T13:19:32.658Z,72.9
2024-03-02T13:20:32.630Z,73.2
2024-03-02T13:21:32.694Z,73.9
2024-03-02T13:22:32.644Z,73.8
2024-03-02T13:23:32.660Z,73.6
2024-03-02T13:24:32.672Z,73.6
2024-03-02T13:25:33.425Z,73.8
2024-03-02T13:26:32.683Z,73.7
2024-03-02T13:27:32.641Z,73.8